Latest Weather Observations for St Lawrence

IDQ60801

Issued at 1:02 pm EST Tuesday 30 May 2017 (issued every 30 minutes, with the page automatically refreshed every 10 minutes)

About weather observations | Map of weather stations | Latest weather observations for QLD | Other Formats
Station Details ID: 033210 Name: ST LAWRENCE Lat: -22.35 Lon: 149.52 Height: 9.19 m
Data from the previous 72 hours. | See also: Recent months at St Lawrence
Date/Time
EST
Temp
°C
App
Temp
°C
Dew
Point
°C
Rel
Hum
%
Delta-T
°C
Wind Press
QNH
hPa
Press
MSL
hPa
Rain since
9am
mm
Dir  Spd
km/h
Gust
km/h
Spd
kts
Gust
kts
30/01:00pm 26.1 26.6 17.5 59 5.4 ESE 11 17 6 9 1019.1 1019.1 0.0
30/12:30pm 25.8 26.3 17.4 59 5.2 ESE 11 17 6 9 1019.5 1019.5 0.0
30/12:00pm 25.0 25.9 17.5 63 4.7 ENE 9 13 5 7 1019.9 1019.9 0.0
30/11:30am 24.6 25.4 17.3 64 4.5 S 9 15 5 8 1020.4 1020.4 0.0
30/11:00am 24.0 24.9 17.5 67 4.0 SSE 9 13 5 7 1020.6 1020.6 0.0
30/10:30am 22.2 23.1 17.6 75 2.8 S 9 13 5 7 1020.9 1020.9 0.0
30/10:00am 21.4 21.4 17.2 77 2.6 S 13 19 7 10 1021.0 1021.0 0.0
30/09:30am 20.8 21.1 17.8 83 1.9 S 13 17 7 9 1021.2 1021.2 0.0
30/09:00am 20.3 20.7 17.3 83 1.8 S 11 15 6 8 1020.9 1020.9 0.0
30/08:30am 19.6 20.7 17.2 86 1.5 S 7 11 4 6 1020.8 1020.8 0.0
30/08:00am 19.2 20.6 17.3 89 1.2 S 6 9 3 5 1020.2 1020.2 0.0
30/07:30am 18.6 19.2 16.8 89 1.1 S 9 13 5 7 1019.9 1019.9 0.0
30/07:00am 18.2 18.7 16.5 90 1.0 SSE 9 13 5 7 1019.5 1019.5 0.0
30/06:30am 18.1 19.1 16.8 92 0.8 S 7 11 4 6 1019.5 1019.5 0.0
30/06:00am 18.0 20.3 16.7 92 0.8 CALM 0 0 0 0 1019.4 1019.4 0.0
30/05:30am 18.1 19.0 16.6 91 0.9 WSW 7 9 4 5 1019.4 1019.4 0.0
30/05:00am 18.3 19.0 17.0 92 0.8 SSE 9 13 5 7 1018.2 1018.2 0.0
30/04:30am 17.8 18.9 16.7 93 0.7 SW 6 9 3 5 1019.1 1019.1 0.0
30/04:00am 18.1 20.3 16.6 91 0.9 CALM 0 4 0 2 1018.6 1018.6 0.0
30/03:30am 18.3 19.9 16.8 91 0.9 SW 4 7 2 4 1018.5 1018.5 0.0
30/03:00am 18.3 20.6 16.8 91 0.9 CALM 0 6 0 3 1018.3 1018.3 0.0
30/02:30am 18.4 20.8 16.9 91 0.9 CALM 0 0 0 0 1018.5 1018.5 0.0
30/02:00am 18.5 20.8 16.8 90 1.0 CALM 0 0 0 0 1019.1 1019.1 0.0
30/01:30am 18.7 20.3 16.9 89 1.1 NE 4 7 2 4 1018.6 1018.6 0.0
30/01:00am 18.6 20.9 16.8 89 1.1 CALM 0 0 0 0 1019.1 1019.1 0.0
30/12:30am 18.7 20.3 16.9 89 1.1 WSW 4 7 2 4 1019.4 1019.4 0.0
30/12:00am 18.8 20.8 16.9 89 1.1 WSW 2 6 1 3 1019.2 1019.2 0.0
 
Date/Time
EST
Temp
°C
App
Temp
°C
Dew
Point
°C
Rel
Hum
%
Delta-T
°C
Wind Press
QNH
hPa
Press
MSL
hPa
Rain since
9am
mm
Dir  Spd
km/h
Gust
km/h
Spd
kts
Gust
kts
29/11:30pm 19.1 21.5 16.9 87 1.3 CALM 0 0 0 0 1019.1 1019.1 0.0
29/11:00pm 19.6 22.0 17.0 85 1.6 CALM 0 0 0 0 1019.7 1019.7 0.0
29/10:30pm 19.6 21.3 17.2 86 1.5 WSW 4 7 2 4 1020.2 1020.2 0.0
29/10:00pm 19.8 22.4 17.6 87 1.3 CALM 0 0 0 0 1019.6 1019.6 0.0
29/09:30pm 20.1 22.8 17.7 86 1.5 CALM 0 0 0 0 1019.6 1019.6 0.0
29/09:00pm 20.3 21.9 17.9 86 1.5 NE 6 9 3 5 1019.4 1019.4 0.0
29/08:30pm 20.4 23.0 17.6 84 1.7 CALM 0 0 0 0 1019.2 1019.2 0.0
29/08:00pm 20.7 23.2 17.3 81 2.1 CALM 0 6 0 3 1019.2 1019.2 0.0
29/07:30pm 21.0 23.1 18.0 83 1.9 SW 4 6 2 3 1019.0 1019.0 0.0
29/07:00pm 21.2 24.2 18.4 84 1.7 CALM 0 0 0 0 1018.5 1018.5 0.0
29/06:30pm 21.4 24.3 18.2 82 2.0 CALM 0 0 0 0 1018.2 1018.2 0.0
29/06:00pm 22.1 25.0 18.1 78 2.5 CALM 0 0 0 0 1017.9 1017.9 0.0
29/05:30pm 22.8 25.2 17.9 74 3.1 NNE 2 6 1 3 1017.6 1017.6 0.0
29/05:00pm 23.3 24.3 17.7 71 3.5 NNE 9 11 5 6 1017.5 1017.5 0.0
29/04:30pm 23.7 25.1 17.9 70 3.6 NNE 7 9 4 5 1017.2 1017.2 0.0
29/04:00pm 23.9 24.5 17.6 68 3.9 NNE 11 13 6 7 1017.3 1017.3 0.0
29/03:30pm 24.5 26.7 17.5 65 4.4 ENE 2 13 1 7 1017.0 1017.0 0.0
29/03:00pm 25.1 27.4 16.8 60 5.1 CALM 0 6 0 3 1017.0 1017.0 0.0
29/02:30pm 25.5 27.0 16.6 58 5.5 N 4 7 2 4 1017.0 1017.0 0.0
29/02:00pm 25.8 26.7 16.6 56 5.7 NNE 7 11 4 6 1017.3 1017.3 0.0
29/01:30pm 25.7 26.9 16.8 58 5.5 NNW 6 9 3 5 1017.5 1017.5 0.0
29/01:00pm 25.5 26.7 16.9 59 5.3 NE 6 13 3 7 1017.8 1017.8 0.0
29/12:30pm 25.3 26.8 17.5 62 4.9 E 6 9 3 5 1018.2 1018.2 0.0
29/12:00pm 25.2 28.1 18.2 65 4.4 CALM 0 7 0 4 1018.9 1018.9 0.0
29/11:30am 23.6 25.0 17.3 67 3.9 ESE 6 9 3 5 1019.2 1019.2 0.0
29/11:00am 22.7 24.5 17.4 72 3.3 S 4 7 2 4 1019.5 1019.5 0.0
29/10:30am 22.9 25.3 18.7 77 2.7 WSW 4 9 2 5 1019.9 1019.9 0.0
29/10:00am 21.8 24.1 18.6 82 2.0 SW 4 7 2 4 1020.1 1020.1 0.0
29/09:30am 20.6 22.5 18.5 88 1.3 SSW 6 7 3 4 1020.0 1020.0 0.0
29/09:00am 19.2 21.7 18.2 94 0.6 SSE 2 7 1 4 1019.9 1019.9 0.0
29/08:30am 17.2 19.1 16.6 96 0.4 WSW 2 6 1 3 1019.6 1019.6 0.0
29/08:00am 15.8 17.5 15.2 96 0.3 CALM 0 6 0 3 1019.3 1019.3 0.0
29/07:30am 15.1 16.5 14.5 96 0.3 CALM 0 0 0 0 1019.1 1019.1 0.0
29/07:00am 15.0 16.0 14.2 95 0.5 SSE 2 7 1 4 1018.6 1018.6 0.0
29/06:30am 14.8 15.7 14.0 95 0.4 SSW 2 6 1 3 1018.8 1018.8 0.0
29/06:00am 15.4 16.9 14.6 95 0.5 CALM 0 0 0 0 1018.2 1018.2 0.0
29/05:30am 15.5 16.9 14.5 94 0.6 CALM 0 0 0 0 1018.0 1018.0 0.0
29/05:00am 15.7 17.2 14.7 94 0.6 CALM 0 0 0 0 1017.8 1017.8 0.0
29/04:30am 16.0 17.6 15.0 94 0.6 CALM 0 0 0 0 1017.8 1017.8 0.0
29/04:00am 16.1 16.6 15.1 94 0.6 SSW 6 6 3 3 1017.7 1017.7 0.0
29/03:30am 16.2 17.9 15.2 94 0.6 CALM 0 6 0 3 1018.0 1018.0 0.0
29/03:00am 16.4 17.0 15.4 94 0.6 WSW 6 7 3 4 1018.0 1018.0 0.0
29/02:30am 16.6 17.7 15.6 94 0.6 SW 4 6 2 3 1018.0 1018.0 0.0
29/02:00am 16.4 18.1 15.3 93 0.6 CALM 0 0 0 0 1018.3 1018.3 0.0
29/01:30am 16.8 17.9 15.5 92 0.8 WSW 4 6 2 3 1018.2 1018.2 0.0
29/01:00am 16.8 17.9 15.5 92 0.8 SW 4 6 2 3 1018.5 1018.5 0.0
29/12:30am 16.9 17.7 15.8 93 0.6 SW 6 7 3 4 1018.6 1018.6 0.0
29/12:00am 17.1 17.9 15.8 92 0.8 WSW 6 7 3 4 1018.6 1018.6 0.0
 
Date/Time
EST
Temp
°C
App
Temp
°C
Dew
Point
°C
Rel
Hum
%
Delta-T
°C
Wind Press
QNH
hPa
Press
MSL
hPa
Rain since
9am
mm
Dir  Spd
km/h
Gust
km/h
Spd
kts
Gust
kts
28/11:30pm 17.3 18.5 16.0 92 0.8 WSW 4 6 2 3 1018.6 1018.6 0.0
28/11:00pm 17.5 18.5 16.4 93 0.7 WSW 6 6 3 3 1018.7 1018.7 0.0
28/10:30pm 17.7 19.9 16.6 93 0.7 CALM 0 0 0 0 1018.8 1018.8 0.0
28/10:00pm 17.7 19.9 16.4 92 0.8 CALM 0 0 0 0 1018.8 1018.8 0.0
28/09:30pm 18.1 20.4 16.8 92 0.8 CALM 0 0 0 0 1018.7 1018.7 0.0
28/09:00pm 18.2 20.5 16.7 91 0.9 CALM 0 0 0 0 1018.7 1018.7 0.0
28/08:30pm 18.7 21.1 17.0 90 1.0 CALM 0 0 0 0 1018.5 1018.5 0.0
28/08:00pm 19.2 21.8 17.5 90 1.0 CALM 0 0 0 0 1018.2 1018.2 0.0
28/07:30pm 19.7 22.3 17.5 87 1.3 CALM 0 0 0 0 1017.8 1017.8 0.0
28/07:00pm 20.4 23.1 17.8 85 1.6 CALM 0 4 0 2 1017.6 1017.6 0.0
28/06:30pm 21.2 22.8 18.2 83 1.9 NNE 7 9 4 5 1017.2 1017.2 0.0
28/06:00pm 21.7 23.1 17.9 79 2.4 NNE 7 9 4 5 1016.9 1016.9 0.0
28/05:30pm 22.3 23.3 17.7 75 2.9 NNE 9 11 5 6 1016.5 1016.5 0.0
28/05:00pm 23.5 24.2 17.9 71 3.5 NNE 11 15 6 8 1016.2 1016.2 0.0
28/04:30pm 24.3 24.6 17.1 64 4.5 NE 11 15 6 8 1016.0 1016.0 0.0
28/04:00pm 24.9 24.5 16.3 59 5.3 NNE 13 19 7 10 1015.9 1015.9 0.0
28/03:30pm 25.5 24.4 14.3 50 6.7 NE 13 19 7 10 1015.7 1015.7 0.0
28/03:00pm 25.6 25.1 15.9 55 5.9 NNE 13 19 7 10 1015.7 1015.7 0.0
28/02:30pm 25.5 25.1 16.1 56 5.7 NE 13 19 7 10 1015.8 1015.8 0.0
28/02:00pm 26.0 26.6 16.8 57 5.7 NE 9 15 5 8 1015.9 1015.9 0.0
28/01:30pm 25.7 25.7 16.3 56 5.8 N 11 17 6 9 1016.3 1016.3 0.0
28/01:00pm 25.5 25.3 15.8 55 5.9 NE 11 17 6 9 1016.6 1016.6 0.0
28/12:30pm 25.6 26.1 15.6 54 6.1 NNE 7 13 4 7 1017.1 1017.1 0.0
28/12:00pm 25.3 26.1 16.4 57 5.5 NNE 7 13 4 7 1017.5 1017.5 0.0
28/11:30am 25.2 26.5 17.1 60 5.0 NE 6 11 3 6 1017.9 1017.9 0.0
28/11:00am 24.8 26.6 17.5 64 4.5 ENE 4 11 2 6 1018.2 1018.2 0.0
28/10:30am 24.1 25.7 17.8 68 3.9 E 6 9 3 5 1018.6 1018.6 0.0
28/10:00am 23.0 25.5 19.0 78 2.5 SSW 4 9 2 5 1018.9 1018.9 0.0
28/09:30am 21.4 22.8 17.8 80 2.2 S 7 11 4 6 1018.9 1018.9 0.0
28/09:00am 20.4 21.4 17.8 85 1.6 S 9 13 5 7 1018.7 1018.7 0.2
28/08:30am 19.2 20.0 17.2 88 1.2 S 9 11 5 6 1018.6 1018.6 0.2
28/08:00am 17.9 19.8 16.8 93 0.7 SW 2 6 1 3 1018.5 1018.5 0.2
28/07:30am 16.8 18.8 16.0 95 0.5 CALM 0 2 0 1 1018.4 1018.4 0.2
28/07:00am 16.1 16.8 15.5 96 0.3 S 6 7 3 4 1018.1 1018.1 0.2
28/06:30am 15.4 16.5 14.6 95 0.5 SW 2 7 1 4 1018.0 1018.0 0.2
28/06:00am 15.3 16.4 14.5 95 0.5 WSW 2 7 1 4 1017.9 1017.9 0.2
28/05:30am 15.6 17.1 14.6 94 0.6 CALM 0 0 0 0 1017.6 1017.6 0.2
28/05:00am 16.1 17.4 15.1 94 0.6 SSW 2 7 1 4 1017.5 1017.5 0.2
28/04:30am 16.3 16.9 15.3 94 0.6 SSW 6 6 3 3 1017.6 1017.6 0.2
28/04:00am 17.2 18.0 16.4 95 0.5 S 7 11 4 6 1017.6 1017.6 0.2
28/03:30am 17.2 18.0 16.4 95 0.5 S 7 11 4 6 1017.6 1017.6 0.2
28/03:00am 16.8 17.6 15.8 94 0.6 SSW 6 9 3 5 1017.8 1017.8 0.2
28/02:30am 16.9 18.8 15.8 93 0.6 CALM 0 0 0 0 1018.2 1018.2 0.2
28/02:00am 17.3 19.4 16.3 94 0.6 CALM 0 0 0 0 1018.3 1018.3 0.2
28/01:30am 17.6 19.1 16.6 94 0.6 SSW 4 6 2 3 1018.5 1018.5 0.2
28/01:00am 17.8 19.4 16.8 94 0.6 SW 4 6 2 3 1018.8 1018.8 0.2
28/12:30am 17.3 18.6 16.2 93 0.7 WSW 4 7 2 4 1018.8 1018.8 0.2
28/12:00am 17.4 19.4 15.9 91 0.9 CALM 0 0 0 0 1018.9 1018.9 0.2
 
Date/Time
EST
Temp
°C
App
Temp
°C
Dew
Point
°C
Rel
Hum
%
Delta-T
°C
Wind Press
QNH
hPa
Press
MSL
hPa
Rain since
9am
mm
Dir  Spd
km/h
Gust
km/h
Spd
kts
Gust
kts
27/11:30pm 17.9 20.0 16.2 90 1.0 CALM 0 0 0 0 1019.0 1019.0 0.2
27/11:00pm 18.3 20.5 16.6 90 1.0 CALM 0 0 0 0 1019.1 1019.1 0.2
27/10:30pm 19.0 21.5 17.3 90 1.0 CALM 0 4 0 2 1019.1 1019.1 0.2
27/10:00pm 19.0 21.7 17.7 92 0.8 CALM 0 0 0 0 1019.2 1019.2 0.2
27/09:30pm 19.0 21.4 17.1 89 1.2 CALM 0 0 0 0 1019.2 1019.2 0.2
27/09:00pm 19.1 21.7 17.4 90 1.0 CALM 0 0 0 0 1019.1 1019.1 0.2
27/08:30pm 19.1 21.6 17.2 89 1.2 CALM 0 0 0 0 1019.2 1019.2 0.2
27/08:00pm 19.4 21.8 17.0 86 1.5 CALM 0 0 0 0 1019.0 1019.0 0.2
27/07:30pm 20.0 22.6 17.4 85 1.6 CALM 0 0 0 0 1018.6 1018.6 0.2
27/07:00pm 20.9 23.4 18.1 84 1.7 NNE 2 6 1 3 1018.2 1018.2 0.2
27/06:30pm 21.3 24.2 18.3 83 1.9 CALM 0 0 0 0 1017.9 1017.9 0.2
27/06:00pm 21.9 23.8 18.5 81 2.1 N 6 7 3 4 1017.6 1017.6 0.2
27/05:30pm 22.6 23.5 18.4 77 2.6 NNE 11 15 6 8 1017.2 1017.2 0.2
27/05:00pm 23.5 23.7 17.7 70 3.6 NNE 13 19 7 10 1016.9 1016.9 0.2
27/04:30pm 24.3 24.7 17.3 65 4.3 NNE 11 17 6 9 1016.7 1016.7 0.2
27/04:00pm 24.7 24.5 16.7 61 4.9 NE 13 17 7 9 1016.5 1016.5 0.2
27/03:30pm 25.3 25.4 17.5 62 4.9 NE 13 17 7 9 1016.4 1016.4 0.2
27/03:00pm 25.5 25.9 17.2 60 5.2 NE 11 17 6 9 1016.5 1016.5 0.2
27/02:30pm 25.7 25.7 17.1 59 5.3 NE 13 17 7 9 1016.6 1016.6 0.2
27/02:00pm 25.8 25.3 16.9 58 5.5 NNE 15 20 8 11 1016.6 1016.6 0.2
27/01:30pm 25.9 26.1 16.7 57 5.7 NE 11 17 6 9 1016.9 1016.9 0.2

Other Formats:

Comma delimited format used in spreadsheet applications
http://www.bom.gov.au/fwo/IDQ60801/IDQ60801.95369.axf

JavaScript Object Notation format (JSON) in row-major order
http://www.bom.gov.au/fwo/IDQ60801/IDQ60801.95369.json